Time,TemperatureF,DewpointF,PressureIn,WindDirection,WindDirectionDegrees,WindSpeedMPH,WindSpeedGustMPH,Humidity,HourlyPrecipIn,Conditions,Clouds,dailyrainin,SoftwareType,DateUTC
2014-04-18 00:01:00,75.2,70.5,29.87,ENE,68,10.5,10.5,85,0.00,,,0.00,WUHU216HW,2014-04-18 04:01:00,
2014-04-18 00:06:00,75.2,70.5,29.88,ENE,68,8.1,12.1,85,0.00,,,0.00,WUHU216HW,2014-04-18 04:06:00,
2014-04-18 00:11:00,75.2,70.5,29.87,ENE,68,6.7,12.1,85,0.00,,,0.00,WUHU216HW,2014-04-18 04:11:00,
2014-04-18 00:16:00,75.2,70.5,29.87,ENE,68,6.9,11.4,85,0.00,,,0.00,WUHU216HW,2014-04-18 04:16:00,
2014-04-18 00:21:00,75.2,70.8,29.87,NE,45,6.9,9.6,86,0.00,,,0.00,WUHU216HW,2014-04-18 04:21:00,
2014-04-18 00:26:00,75.1,70.3,29.87,ENE,68,6.5,9.6,85,0.00,,,0.00,WUHU216HW,2014-04-18 04:26:00,
2014-04-18 00:31:00,75.1,70.7,29.87,East,90,4.3,9.4,86,0.00,,,0.00,WUHU216HW,2014-04-18 04:31:00,
2014-04-18 00:36:00,74.9,70.5,29.87,ESE,113,6.3,9.4,86,0.00,,,0.00,WUHU216HW,2014-04-18 04:36:00,
2014-04-18 00:41:00,74.9,70.8,29.87,East,90,5.4,8.7,87,0.00,,,0.00,WUHU216HW,2014-04-18 04:41:00,
2014-04-18 00:46:00,74.9,70.8,29.86,NE,45,5.8,8.7,87,0.00,,,0.00,WUHU216HW,2014-04-18 04:46:00,
2014-04-18 00:51:00,75.1,71.0,29.86,East,90,9.2,9.2,87,0.00,,,0.00,WUHU216HW,2014-04-18 04:51:00,
2014-04-18 00:56:00,75.1,71.0,29.86,ESE,113,9.4,9.4,87,0.00,,,0.00,WUHU216HW,2014-04-18 04:56:00,
2014-04-18 01:01:00,75.1,70.7,29.85,ENE,68,4.9,12.1,86,0.00,,,0.00,WUHU216HW,2014-04-18 05:01:00,
2014-04-18 01:06:00,74.9,70.8,29.86,East,90,8.3,12.1,87,0.00,,,0.00,WUHU216HW,2014-04-18 05:06:00,
2014-04-18 01:11:00,75.1,71.0,29.85,East,90,5.1,9.2,87,0.00,,,0.00,WUHU216HW,2014-04-18 05:11:00,
2014-04-18 01:16:00,74.9,70.8,29.85,East,90,5.4,10.7,87,0.00,,,0.00,WUHU216HW,2014-04-18 05:16:00,
2014-04-18 01:21:00,74.9,71.1,29.85,East,90,7.4,10.7,88,0.00,,,0.00,WUHU216HW,2014-04-18 05:21:00,
2014-04-18 01:26:00,74.9,71.1,29.85,ENE,68,8.7,8.7,88,0.00,,,0.00,WUHU216HW,2014-04-18 05:26:00,
2014-04-18 01:31:00,74.9,71.1,29.85,ENE,68,5.6,10.1,88,0.00,,,0.00,WUHU216HW,2014-04-18 05:31:00,
2014-04-18 01:36:00,74.9,71.1,29.85,ESE,113,6.9,10.1,88,0.00,,,0.00,WUHU216HW,2014-04-18 05:36:00,
2014-04-18 01:40:00,75.1,71.0,29.84,NE,45,7.8,7.8,87,0.00,,,0.00,WUHU216HW,2014-04-18 05:40:00,
2014-04-18 01:41:00,75.1,71.0,29.84,NE,45,7.8,9.8,87,0.00,,,0.00,WUHU216HW,2014-04-18 05:41:00,
2014-04-18 01:46:00,75.1,71.0,29.84,NE,45,7.8,9.8,87,0.00,,,0.00,WUHU216HW,2014-04-18 05:46:00,
2014-04-18 02:00:00,74.9,70.8,29.84,ESE,113,8.3,8.3,87,0.00,,,0.00,WUHU216HW,2014-04-18 06:00:00,
2014-04-18 02:05:00,75.1,71.3,29.84,ENE,68,6.9,9.2,88,0.00,,,0.00,WUHU216HW,2014-04-18 06:05:00,
2014-04-18 02:10:00,75.1,71.0,29.83,NE,45,6.9,10.7,87,0.00,,,0.00,WUHU216HW,2014-04-18 06:10:00,
2014-04-18 02:15:00,75.2,71.2,29.83,ENE,68,6.7,10.7,87,0.00,,,0.00,WUHU216HW,2014-04-18 06:15:00,
2014-04-18 02:20:00,75.1,71.0,29.83,NE,45,6.9,9.4,87,0.00,,,0.00,WUHU216HW,2014-04-18 06:20:00,
2014-04-18 02:25:00,75.1,71.3,29.83,East,90,7.2,9.4,88,0.00,,,0.00,WUHU216HW,2014-04-18 06:25:00,
2014-04-18 02:30:00,74.9,71.1,29.83,East,90,6.9,8.9,88,0.00,,,0.00,WUHU216HW,2014-04-18 06:30:00,
2014-04-18 02:35:00,74.9,71.1,29.82,East,90,5.1,8.9,88,0.00,,,0.00,WUHU216HW,2014-04-18 06:35:00,
2014-04-18 02:40:00,74.9,70.8,29.83,ENE,68,9.8,9.8,87,0.00,,,0.00,WUHU216HW,2014-04-18 06:40:00,
2014-04-18 02:45:00,74.9,71.1,29.83,SE,135,5.6,9.8,88,0.00,,,0.00,WUHU216HW,2014-04-18 06:45:00,
2014-04-18 02:50:00,74.9,71.1,29.83,ENE,68,4.9,7.6,88,0.00,,,0.00,WUHU216HW,2014-04-18 06:50:00,
2014-04-18 02:55:00,74.9,71.1,29.83,ENE,68,3.8,8.5,88,0.00,,,0.00,WUHU216HW,2014-04-18 06:55:00,
2014-04-18 03:00:00,74.9,71.1,29.83,ENE,68,4.9,8.5,88,0.00,,,0.00,WUHU216HW,2014-04-18 07:00:00,
2014-04-18 03:05:00,74.9,71.1,29.82,NNE,23,5.6,7.6,88,0.00,,,0.00,WUHU216HW,2014-04-18 07:05:00,
2014-04-18 03:10:00,74.9,71.1,29.82,ENE,68,4.7,7.8,88,0.00,,,0.00,WUHU216HW,2014-04-18 07:10:00,
2014-04-18 03:15:00,74.9,71.1,29.82,ENE,68,4.0,7.8,88,0.00,,,0.00,WUHU216HW,2014-04-18 07:15:00,
2014-04-18 03:20:00,74.7,70.9,29.82,NE,45,5.4,5.4,88,0.00,,,0.00,WUHU216HW,2014-04-18 07:20:00,
2014-04-18 03:25:00,74.9,71.1,29.81,ENE,68,4.3,5.6,88,0.00,,,0.00,WUHU216HW,2014-04-18 07:25:00,
2014-04-18 03:30:00,74.9,71.1,29.81,NE,45,2.9,6.3,88,0.00,,,0.00,WUHU216HW,2014-04-18 07:30:00,
2014-04-18 03:35:00,74.9,71.5,29.81,East,90,3.4,6.3,89,0.00,,,0.00,WUHU216HW,2014-04-18 07:35:00,
2014-04-18 03:40:00,74.9,71.5,29.82,East,90,3.4,5.6,89,0.00,,,0.00,WUHU216HW,2014-04-18 07:40:00,
2014-04-18 03:45:00,74.9,71.5,29.81,NNE,23,3.6,4.7,89,0.00,,,0.00,WUHU216HW,2014-04-18 07:45:00,
2014-04-18 03:50:00,74.9,71.5,29.81,ENE,68,5.6,5.8,89,0.00,,,0.00,WUHU216HW,2014-04-18 07:50:00,
2014-04-18 03:55:00,74.9,71.5,29.80,ENE,68,4.3,6.0,89,0.00,,,0.00,WUHU216HW,2014-04-18 07:55:00,
2014-04-18 04:00:00,74.9,71.5,29.80,East,90,4.9,6.0,89,0.00,,,0.00,WUHU216HW,2014-04-18 08:00:00,
2014-04-18 04:05:00,74.7,71.3,29.80,NE,45,2.7,7.2,89,0.01,,,0.02,WUHU216HW,2014-04-18 08:05:00,
2014-04-18 04:10:00,74.5,71.5,29.80,NE,45,6.3,7.2,90,0.01,,,0.02,WUHU216HW,2014-04-18 08:10:00,
2014-04-18 04:15:00,74.3,71.3,29.80,ESE,113,5.4,8.5,90,0.02,,,0.02,WUHU216HW,2014-04-18 08:15:00,
2014-04-18 04:20:00,74.2,71.4,29.80,ESE,113,5.4,8.5,91,0.03,,,0.04,WUHU216HW,2014-04-18 08:20:00,
2014-04-18 04:25:00,73.8,71.0,29.80,NE,45,6.9,8.5,91,0.04,,,0.05,WUHU216HW,2014-04-18 08:25:00,
2014-04-18 04:30:00,73.4,70.7,29.80,East,90,4.0,6.9,91,0.04,,,0.05,WUHU216HW,2014-04-18 08:30:00,
2014-04-18 04:35:00,73.3,70.5,29.80,South,180,2.5,6.9,91,0.04,,,0.05,WUHU216HW,2014-04-18 08:35:00,
2014-04-18 04:40:00,73.1,70.0,29.81,SSE,158,5.4,6.9,90,0.13,,,0.09,WUHU216HW,2014-04-18 08:40:00,
2014-04-18 04:45:00,72.9,69.8,29.80,East,90,3.4,6.0,90,0.24,,,0.24,WUHU216HW,2014-04-18 08:45:00,
2014-04-18 04:50:00,72.5,69.8,29.80,East,90,5.4,6.0,91,0.31,,,0.31,WUHU216HW,2014-04-18 08:50:00,
2014-04-18 04:55:00,72.4,69.6,29.80,ESE,113,5.4,7.6,91,0.33,,,0.33,WUHU216HW,2014-04-18 08:55:00,
2014-04-18 05:00:00,72.2,69.4,29.80,East,90,1.1,7.6,91,0.33,,,0.33,WUHU216HW,2014-04-18 09:00:00,
2014-04-18 05:05:00,72.2,69.4,29.80,NE,45,1.1,5.1,91,0.31,,,0.33,WUHU216HW,2014-04-18 09:05:00,
2014-04-18 05:10:00,72.2,69.4,29.80,East,90,3.4,3.6,91,0.31,,,0.33,WUHU216HW,2014-04-18 09:10:00,
2014-04-18 05:15:00,72.4,69.9,29.79,ENE,68,4.5,4.5,92,0.30,,,0.33,WUHU216HW,2014-04-18 09:15:00,
2014-04-18 05:16:00,72.2,69.4,29.79,ESE,113,3.4,3.4,91,0.30,,,0.33,WUHU216HW,2014-04-18 09:16:00,
2014-04-18 05:20:00,72.2,69.4,29.79,ESE,113,3.4,4.5,91,0.30,,,0.33,WUHU216HW,2014-04-18 09:20:00,
2014-04-18 05:25:00,72.2,69.4,29.79,ESE,113,3.4,3.4,91,0.30,,,0.33,WUHU216HW,2014-04-18 09:25:00,
2014-04-18 05:46:00,72.4,70.2,29.78,East,90,4.0,4.0,93,0.03,,,0.33,WUHU216HW,2014-04-18 09:46:00,
2014-04-18 05:51:00,72.5,70.1,29.78,ESE,113,2.2,4.0,92,0.02,,,0.34,WUHU216HW,2014-04-18 09:51:00,
2014-04-18 05:56:00,72.5,70.1,29.77,East,90,3.8,3.8,92,0.01,,,0.34,WUHU216HW,2014-04-18 09:56:00,
2014-04-18 06:01:00,72.9,70.7,29.77,ESE,113,5.4,5.4,93,0.01,,,0.34,WUHU216HW,2014-04-18 10:01:00,
2014-04-18 06:06:00,73.1,70.7,29.78,East,90,3.4,6.3,92,0.01,,,0.34,WUHU216HW,2014-04-18 10:06:00,
2014-04-18 06:11:00,73.1,70.7,29.78,East,90,3.8,6.3,92,0.01,,,0.34,WUHU216HW,2014-04-18 10:11:00,
2014-04-18 06:16:00,73.3,71.1,29.78,ENE,68,4.0,5.1,93,0.01,,,0.34,WUHU216HW,2014-04-18 10:16:00,
2014-04-18 06:21:00,73.4,71.3,29.77,East,90,2.7,4.7,93,0.00,,,0.34,WUHU216HW,2014-04-18 10:21:00,
2014-04-18 06:26:00,73.4,71.0,29.77,SE,135,5.1,5.6,92,0.00,,,0.34,WUHU216HW,2014-04-18 10:26:00,
2014-04-18 06:31:00,73.6,71.2,29.77,East,90,2.7,5.6,92,0.00,,,0.34,WUHU216HW,2014-04-18 10:31:00,
2014-04-18 06:36:00,73.6,71.2,29.77,East,90,1.8,4.5,92,0.00,,,0.34,WUHU216HW,2014-04-18 10:36:00,
2014-04-18 06:41:00,73.6,71.2,29.77,East,90,1.8,1.8,92,0.00,,,0.34,WUHU216HW,2014-04-18 10:41:00,
2014-04-18 07:00:00,74.0,71.6,29.79,SE,135,2.9,2.9,92,0.00,,,0.34,WUHU216HW,2014-04-18 11:00:00,
2014-04-18 07:05:00,74.0,71.6,29.79,SE,135,2.9,3.6,92,0.00,,,0.34,WUHU216HW,2014-04-18 11:05:00,
2014-04-18 07:10:00,74.0,71.6,29.79,SSE,158,1.8,3.6,92,0.00,,,0.34,WUHU216HW,2014-04-18 11:10:00,
2014-04-18 07:15:00,74.0,71.6,29.80,ESE,113,2.5,3.4,92,0.00,,,0.34,WUHU216HW,2014-04-18 11:15:00,
2014-04-18 07:20:00,74.0,71.6,29.80,SSE,158,2.9,4.0,92,0.00,,,0.34,WUHU216HW,2014-04-18 11:20:00,
2014-04-18 07:25:00,74.0,71.6,29.80,SE,135,2.0,4.0,92,0.00,,,0.34,WUHU216HW,2014-04-18 11:25:00,
2014-04-18 07:30:00,74.2,71.7,29.80,ESE,113,1.1,3.6,92,0.00,,,0.34,WUHU216HW,2014-04-18 11:30:00,
2014-04-18 07:35:00,74.2,71.7,29.80,SE,135,1.1,2.5,92,0.00,,,0.34,WUHU216HW,2014-04-18 11:35:00,
2014-04-18 07:40:00,74.2,71.7,29.80,SE,135,1.1,2.0,92,0.00,,,0.34,WUHU216HW,2014-04-18 11:40:00,
2014-04-18 07:45:00,74.2,71.7,29.81,SSE,158,0.4,2.0,92,0.00,,,0.34,WUHU216HW,2014-04-18 11:45:00,
2014-04-18 07:50:00,74.3,71.9,29.81,SSW,203,2.5,2.5,92,0.00,,,0.34,WUHU216HW,2014-04-18 11:50:00,
2014-04-18 07:55:00,74.5,72.1,29.82,South,180,2.2,2.5,92,0.00,,,0.34,WUHU216HW,2014-04-18 11:55:00,
2014-04-18 08:00:00,74.5,72.1,29.82,SSW,203,0.4,2.9,92,0.00,,,0.34,WUHU216HW,2014-04-18 12:00:00,
2014-04-18 08:05:00,74.7,72.3,29.82,ESE,113,0.9,2.9,92,0.00,,,0.34,WUHU216HW,2014-04-18 12:05:00,
2014-04-18 08:10:00,74.7,72.3,29.82,SSE,158,0.7,2.5,92,0.00,,,0.34,WUHU216HW,2014-04-18 12:10:00,
2014-04-18 08:15:00,74.9,72.5,29.82,SSE,158,0.9,2.5,92,0.00,,,0.34,WUHU216HW,2014-04-18 12:15:00,
2014-04-18 08:20:00,75.1,72.3,29.82,SE,135,2.5,2.5,91,0.00,,,0.34,WUHU216HW,2014-04-18 12:20:00,
2014-04-18 08:25:00,75.2,72.5,29.83,SSE,158,1.1,2.5,91,0.00,,,0.34,WUHU216HW,2014-04-18 12:25:00,
2014-04-18 08:30:00,75.8,73.0,29.83,SSE,158,1.6,2.5,91,0.00,,,0.34,WUHU216HW,2014-04-18 12:30:00,
2014-04-18 08:35:00,76.1,73.4,29.82,SE,135,2.5,2.5,91,0.00,,,0.34,WUHU216HW,2014-04-18 12:35:00,
2014-04-18 08:40:00,76.1,73.1,29.82,SE,135,2.2,4.3,90,0.00,,,0.34,WUHU216HW,2014-04-18 12:40:00,
2014-04-18 08:45:00,76.5,73.1,29.82,SE,135,3.6,4.3,89,0.00,,,0.34,WUHU216HW,2014-04-18 12:45:00,
2014-04-18 08:50:00,76.7,73.3,29.82,SE,135,4.5,5.4,89,0.00,,,0.34,WUHU216HW,2014-04-18 12:50:00,
2014-04-18 08:55:00,77.0,73.6,29.82,East,90,4.9,5.4,89,0.00,,,0.34,WUHU216HW,2014-04-18 12:55:00,
2014-04-18 09:00:00,77.4,73.3,29.81,SSE,158,4.7,6.9,87,0.00,,,0.34,WUHU216HW,2014-04-18 13:00:00,
2014-04-18 09:05:00,77.9,73.4,29.81,ESE,113,2.5,7.2,86,0.00,,,0.34,WUHU216HW,2014-04-18 13:05:00,
2014-04-18 09:10:00,78.1,73.6,29.81,SE,135,5.6,7.2,86,0.00,,,0.34,WUHU216HW,2014-04-18 13:10:00,
2014-04-18 09:15:00,78.5,73.6,29.81,East,90,5.4,6.9,85,0.00,,,0.34,WUHU216HW,2014-04-18 13:15:00,
2014-04-18 09:20:00,78.8,73.6,29.81,South,180,4.7,8.3,84,0.00,,,0.34,WUHU216HW,2014-04-18 13:20:00,
2014-04-18 09:25:00,79.0,73.5,29.81,SE,135,5.6,8.3,83,0.00,,,0.34,WUHU216HW,2014-04-18 13:25:00,
2014-04-18 09:30:00,79.2,73.6,29.81,SE,135,7.6,10.7,83,0.00,,,0.34,WUHU216HW,2014-04-18 13:30:00,
2014-04-18 09:35:00,79.2,72.9,29.81,SSE,158,3.4,10.7,81,0.00,,,0.34,WUHU216HW,2014-04-18 13:35:00,
2014-04-18 09:40:00,79.4,73.1,29.81,SE,135,3.8,8.1,81,0.00,,,0.34,WUHU216HW,2014-04-18 13:40:00,
2014-04-18 09:45:00,79.6,72.9,29.81,SSE,158,7.8,8.9,80,0.00,,,0.34,WUHU216HW,2014-04-18 13:45:00,
2014-04-18 09:50:00,79.4,73.1,29.80,South,180,7.6,8.9,81,0.00,,,0.34,WUHU216HW,2014-04-18 13:50:00,
2014-04-18 09:55:00,79.4,72.7,29.80,SSE,158,4.5,7.8,80,0.00,,,0.34,WUHU216HW,2014-04-18 13:55:00,
2014-04-18 10:00:00,79.6,72.9,29.81,SSE,158,7.2,10.1,80,0.00,,,0.34,WUHU216HW,2014-04-18 14:00:00,